Time;durP1;ratioP1;P1;durP2;ratioP2;P2;SDS_P1;SDS_P2;PMS_P1;PMS_P2;Temp;Humidity;BMP_temperature;BMP_pressure;BME280_temperature;BME280_humidity;BME280_pressure;Samples;Min_cycle;Max_cycle;Signal;HPM_P1;HPM_P2
2023/04/08 00:00:05;;;;;;;8.30;2.20;;;;;;;;;;4956168;28;20050;-69
2023/04/08 00:02:33;;;;;;;6.93;1.67;;;;;;;;;;4954569;28;20022;-69
2023/04/08 00:04:59;;;;;;;7.68;1.90;;;;;;;;;;4939947;28;20031;-69
2023/04/08 00:07:26;;;;;;;7.30;1.90;;;;;;;;;;4959366;28;20065;-69
2023/04/08 00:09:54;;;;;;;6.60;1.80;;;;;;;;;;4954837;28;20038;-69
2023/04/08 00:12:21;;;;;;;6.18;1.70;;;;;;;;;;4942632;28;20042;-69
2023/04/08 00:14:49;;;;;;;4.70;1.50;;;;;;;;;;4940309;28;20577;-69
2023/04/08 00:17:15;;;;;;;3.92;1.40;;;;;;;;;;4958368;28;20034;-69
2023/04/08 00:19:43;;;;;;;7.15;1.70;;;;;;;;;;4957479;28;20031;-69
2023/04/08 00:22:11;;;;;;;5.75;1.70;;;;;;;;;;4942039;28;20037;-69
2023/04/08 00:24:39;;;;;;;7.82;1.80;;;;;;;;;;4958386;28;20058;-72
2023/04/08 00:27:06;;;;;;;6.60;1.48;;;;;;;;;;4952443;28;20043;-71
2023/04/08 00:29:35;;;;;;;5.43;1.60;;;;;;;;;;4960805;28;20038;-70
2023/04/08 00:32:02;;;;;;;6.53;1.77;;;;;;;;;;4935268;28;20035;-70
2023/04/08 00:34:29;;;;;;;8.23;2.60;;;;;;;;;;4954687;28;20039;-70
2023/04/08 00:36:57;;;;;;;6.72;2.17;;;;;;;;;;4951983;28;20093;-72
2023/04/08 00:39:24;;;;;;;7.78;2.42;;;;;;;;;;4959499;28;20040;-70
2023/04/08 00:41:52;;;;;;;8.35;2.40;;;;;;;;;;4957047;28;20208;-71
2023/04/08 00:44:18;;;;;;;7.45;1.73;;;;;;;;;;4942018;28;20030;-71
2023/04/08 00:46:46;;;;;;;5.75;1.73;;;;;;;;;;4943889;28;20396;-70
2023/04/08 00:49:14;;;;;;;5.97;1.58;;;;;;;;;;4958595;28;20038;-71
2023/04/08 00:51:41;;;;;;;5.95;1.70;;;;;;;;;;4962628;28;20042;-71
2023/04/08 00:54:08;;;;;;;5.55;1.52;;;;;;;;;;4955206;28;20038;-70
2023/04/08 00:56:35;;;;;;;7.00;1.95;;;;;;;;;;4957409;28;20065;-71
2023/04/08 00:59:02;;;;;;;6.70;1.73;;;;;;;;;;4959814;28;20061;-71
2023/04/08 01:01:29;;;;;;;;;;;;;;;;;;4958317;28;20085;-71
2023/04/08 01:04:18;;;;;;;5.13;1.60;;;;;;;;;;4936714;28;20357;-71
2023/04/08 01:07:06;;;;;;;5.32;1.50;;;;;;;;;;4933710;28;20453;-71
2023/04/08 01:09:33;;;;;;;6.00;1.50;;;;;;;;;;4954387;28;20034;-70
2023/04/08 01:12:03;;;;;;;5.10;1.50;;;;;;;;;;4954502;28;20030;-70
2023/04/08 01:14:38;;;;;;;5.00;1.55;;;;;;;;;;4958847;28;20077;-71
2023/04/08 01:17:04;;;;;;;6.22;1.50;;;;;;;;;;4935833;28;20034;-70
2023/04/08 01:19:34;;;;;;;6.88;1.33;;;;;;;;;;4958402;28;20413;-71
2023/04/08 01:22:11;;;;;;;5.82;1.33;;;;;;;;;;4956910;28;20389;-70
2023/04/08 01:24:39;;;;;;;8.07;1.30;;;;;;;;;;4952643;28;20134;-71
2023/04/08 01:27:07;;;;;;;7.13;1.50;;;;;;;;;;4953170;28;20042;-70
2023/04/08 01:29:35;;;;;;;6.78;1.63;;;;;;;;;;4945679;28;20354;-70
2023/04/08 01:32:02;;;;;;;6.13;1.40;;;;;;;;;;4947084;28;20723;-70
2023/04/08 01:34:32;;;;;;;5.43;1.27;;;;;;;;;;4941498;28;20043;-71
2023/04/08 01:37:01;;;;;;;6.55;1.40;;;;;;;;;;4952873;28;20154;-70
2023/04/08 01:39:28;;;;;;;5.85;1.52;;;;;;;;;;4939085;28;20056;-71
2023/04/08 01:41:58;;;;;;;7.30;1.65;;;;;;;;;;4953299;28;20540;-70
2023/04/08 01:44:27;;;;;;;6.25;1.60;;;;;;;;;;4959050;28;20037;-70
2023/04/08 01:46:55;;;;;;;6.88;1.98;;;;;;;;;;4952480;28;20427;-71
2023/04/08 01:49:23;;;;;;;6.97;2.40;;;;;;;;;;4945903;28;20030;-71
2023/04/08 01:51:50;;;;;;;10.60;3.38;;;;;;;;;;4957049;28;20322;-71
2023/04/08 01:54:17;;;;;;;9.43;3.60;;;;;;;;;;4954589;28;20422;-71
2023/04/08 01:56:45;;;;;;;9.00;3.80;;;;;;;;;;4957771;28;20038;-71
2023/04/08 01:59:15;;;;;;;9.70;3.03;;;;;;;;;;4947261;28;20030;-70
2023/04/08 02:01:42;;;;;;;11.13;2.08;;;;;;;;;;4935666;28;20049;-71
2023/04/08 02:04:10;;;;;;;6.63;1.80;;;;;;;;;;4952449;28;20906;-71
2023/04/08 02:06:37;;;;;;;5.47;1.40;;;;;;;;;;4956332;28;20519;-71
2023/04/08 02:09:04;;;;;;;5.93;1.40;;;;;;;;;;4957446;28;20069;-70
2023/04/08 02:11:31;;;;;;;6.30;1.40;;;;;;;;;;4944146;28;20275;-69
2023/04/08 02:13:58;;;;;;;6.32;1.50;;;;;;;;;;4957135;28;20030;-70
2023/04/08 02:16:29;;;;;;;6.53;1.20;;;;;;;;;;4953973;28;20030;-71
2023/04/08 02:19:03;;;;;;;5.63;1.60;;;;;;;;;;4956930;28;20038;-70
2023/04/08 02:21:37;;;;;;;6.40;1.50;;;;;;;;;;4959446;28;20394;-70
2023/04/08 02:24:05;;;;;;;6.63;1.48;;;;;;;;;;4952716;28;20557;-70
2023/04/08 02:26:33;;;;;;;5.22;1.30;;;;;;;;;;4956773;28;20166;-70
2023/04/08 02:29:00;;;;;;;6.03;1.17;;;;;;;;;;4952250;28;20557;-70
2023/04/08 02:31:28;;;;;;;4.57;1.23;;;;;;;;;;4956506;28;20109;-72
2023/04/08 02:33:57;;;;;;;7.90;1.00;;;;;;;;;;4950382;28;20042;-71
2023/04/08 02:36:25;;;;;;;7.22;1.30;;;;;;;;;;4953009;28;20042;-73
2023/04/08 02:38:51;;;;;;;4.20;1.30;;;;;;;;;;4949047;28;20450;-70
2023/04/08 02:41:17;;;;;;;7.30;1.45;;;;;;;;;;4956100;28;20572;-70
2023/04/08 02:43:44;;;;;;;6.07;1.27;;;;;;;;;;4955544;28;20257;-70
2023/04/08 02:46:11;;;;;;;4.18;1.23;;;;;;;;;;4949969;28;20377;-70
2023/04/08 02:48:37;;;;;;;;;;;;;;;;;;4956784;28;20033;-70
2023/04/08 02:51:04;;;;;;;4.63;1.35;;;;;;;;;;4955528;28;20329;-70
2023/04/08 02:53:31;;;;;;;5.07;1.20;;;;;;;;;;4953529;28;20030;-70
2023/04/08 02:55:57;;;;;;;4.97;1.20;;;;;;;;;;4923506;28;20559;-70
2023/04/08 02:58:25;;;;;;;6.13;1.20;;;;;;;;;;4940637;28;20832;-70
2023/04/08 03:00:51;;;;;;;4.68;1.20;;;;;;;;;;4954757;28;20626;-69
2023/04/08 03:03:19;;;;;;;4.88;1.25;;;;;;;;;;4944094;28;20029;-69
2023/04/08 03:05:46;;;;;;;3.95;1.10;;;;;;;;;;4961704;28;20218;-71
2023/04/08 03:08:12;;;;;;;5.10;1.10;;;;;;;;;;4955215;28;20331;-70
2023/04/08 03:10:39;;;;;;;6.88;1.10;;;;;;;;;;4940606;28;20048;-70
2023/04/08 03:13:07;;;;;;;4.25;0.90;;;;;;;;;;4959409;28;20071;-70
2023/04/08 03:15:33;;;;;;;4.82;1.25;;;;;;;;;;4958407;28;20053;-69
2023/04/08 03:18:00;;;;;;;7.65;1.27;;;;;;;;;;4954624;28;20034;-69
2023/04/08 03:20:28;;;;;;;5.72;1.48;;;;;;;;;;4962351;28;20763;-70
2023/04/08 03:22:55;;;;;;;5.65;1.50;;;;;;;;;;4940900;28;20775;-69
2023/04/08 03:25:22;;;;;;;9.20;2.10;;;;;;;;;;4961626;28;20058;-71
2023/04/08 03:27:49;;;;;;;8.45;1.90;;;;;;;;;;4958532;28;20034;-69
2023/04/08 03:30:17;;;;;;;7.85;2.28;;;;;;;;;;4948956;28;20038;-71
2023/04/08 03:32:44;;;;;;;9.27;2.35;;;;;;;;;;4959878;28;20372;-69
2023/04/08 03:35:10;;;;;;;7.50;1.80;;;;;;;;;;4958412;28;20144;-70
2023/04/08 03:37:38;;;;;;;8.25;2.08;;;;;;;;;;4958608;28;20137;-70
2023/04/08 03:40:06;;;;;;;7.82;2.25;;;;;;;;;;4939148;28;20658;-70
2023/04/08 03:42:33;;;;;;;7.43;2.10;;;;;;;;;;4958576;28;20118;-70
2023/04/08 03:45:01;;;;;;;5.72;1.70;;;;;;;;;;4955110;28;20464;-71
2023/04/08 03:47:28;;;;;;;8.10;2.20;;;;;;;;;;4961191;28;20386;-70
2023/04/08 03:49:57;;;;;;;8.55;2.50;;;;;;;;;;4939161;28;20037;-70
2023/04/08 03:52:24;;;;;;;7.10;2.30;;;;;;;;;;4961005;28;20805;-69
2023/04/08 03:54:50;;;;;;;7.45;2.30;;;;;;;;;;4940844;28;20393;-70
2023/04/08 03:57:18;;;;;;;7.15;2.10;;;;;;;;;;4959994;28;20041;-70
2023/04/08 03:59:45;;;;;;;9.32;2.50;;;;;;;;;;4958834;28;20092;-69
2023/04/08 04:02:12;;;;;;;7.22;2.45;;;;;;;;;;4941390;28;20089;-71
2023/04/08 04:04:39;;;;;;;6.85;2.10;;;;;;;;;;4959806;28;20035;-69
2023/04/08 04:07:07;;;;;;;7.05;2.30;;;;;;;;;;4956202;28;20379;-70
2023/04/08 04:09:34;;;;;;;6.57;2.20;;;;;;;;;;4961831;28;20061;-70
2023/04/08 04:12:02;;;;;;;6.53;1.80;;;;;;;;;;4955376;28;20038;-70
2023/04/08 04:14:29;;;;;;;5.30;1.60;;;;;;;;;;4961606;28;20034;-70
2023/04/08 04:16:57;;;;;;;6.82;1.70;;;;;;;;;;4959246;28;20033;-70
2023/04/08 04:19:24;;;;;;;5.25;1.67;;;;;;;;;;4960102;28;20382;-70
2023/04/08 04:21:50;;;;;;;3.78;1.33;;;;;;;;;;4955804;28;20469;-70
2023/04/08 04:24:17;;;;;;;3.70;1.48;;;;;;;;;;4958205;28;20093;-70
2023/04/08 04:26:44;;;;;;;4.28;1.20;;;;;;;;;;4958732;28;20053;-69
2023/04/08 04:29:11;;;;;;;5.63;1.52;;;;;;;;;;4956555;28;20561;-70
2023/04/08 04:31:38;;;;;;;4.20;1.38;;;;;;;;;;4956815;28;20529;-71
2023/04/08 04:34:05;;;;;;;6.05;1.63;;;;;;;;;;4953739;28;20624;-70
2023/04/08 04:36:33;;;;;;;6.32;1.60;;;;;;;;;;4944239;28;20034;-70
2023/04/08 04:39:00;;;;;;;6.15;1.70;;;;;;;;;;4950787;28;20081;-70
2023/04/08 04:41:27;;;;;;;6.25;2.00;;;;;;;;;;4939277;28;20125;-71
2023/04/08 04:43:54;;;;;;;5.75;2.00;;;;;;;;;;4957624;28;20035;-70
2023/04/08 04:46:21;;;;;;;5.55;1.88;;;;;;;;;;4946911;28;20030;-69
2023/04/08 04:48:47;;;;;;;6.90;1.60;;;;;;;;;;4955307;28;20507;-71
2023/04/08 04:51:15;;;;;;;6.78;1.88;;;;;;;;;;4956144;28;20037;-70
2023/04/08 04:53:42;;;;;;;4.90;1.40;;;;;;;;;;4942574;28;20039;-71
2023/04/08 04:56:08;;;;;;;5.70;1.50;;;;;;;;;;4957220;28;25273;-70
2023/04/08 04:58:36;;;;;;;6.47;1.75;;;;;;;;;;4961669;28;20453;-70
2023/04/08 05:01:03;;;;;;;6.95;1.90;;;;;;;;;;4938299;28;20068;-71
2023/04/08 05:03:30;;;;;;;8.70;1.63;;;;;;;;;;4943190;28;20153;-70
2023/04/08 05:05:56;;;;;;;7.50;1.50;;;;;;;;;;4939220;28;20683;-70
2023/04/08 05:08:22;;;;;;;4.97;1.40;;;;;;;;;;4960826;28;20037;-71
2023/04/08 05:10:49;;;;;;;5.38;1.27;;;;;;;;;;4941675;28;20149;-72
2023/04/08 05:13:17;;;;;;;5.57;1.60;;;;;;;;;;4942994;28;20023;-71
2023/04/08 05:15:47;;;;;;;5.95;1.10;;;;;;;;;;4955864;28;20038;-69
2023/04/08 05:18:14;;;;;;;3.85;1.13;;;;;;;;;;4939085;28;21167;-70
2023/04/08 05:20:41;;;;;;;6.82;1.10;;;;;;;;;;4961657;28;20026;-71
2023/04/08 05:23:08;;;;;;;3.10;0.98;;;;;;;;;;4956851;28;20034;-70
2023/04/08 05:25:35;;;;;;;5.35;1.20;;;;;;;;;;4958226;28;20057;-70
2023/04/08 05:28:01;;;;;;;4.60;1.10;;;;;;;;;;4956490;28;20093;-70
2023/04/08 05:30:29;;;;;;;4.93;1.27;;;;;;;;;;4939511;28;20187;-72
2023/04/08 05:32:56;;;;;;;3.28;1.17;;;;;;;;;;4955780;28;20185;-72
2023/04/08 05:35:24;;;;;;;5.22;1.27;;;;;;;;;;4944532;28;20101;-71
2023/04/08 05:37:51;;;;;;;5.03;1.27;;;;;;;;;;4954842;28;20366;-71
2023/04/08 05:40:18;;;;;;;5.13;1.10;;;;;;;;;;4938742;28;20914;-71
2023/04/08 05:42:46;;;;;;;5.80;1.40;;;;;;;;;;4942428;28;20501;-71
2023/04/08 05:45:13;;;;;;;4.95;1.38;;;;;;;;;;4952913;28;20065;-71
2023/04/08 05:47:40;;;;;;;4.28;1.20;;;;;;;;;;4944292;28;20034;-71
2023/04/08 05:50:08;;;;;;;6.13;1.48;;;;;;;;;;4953402;28;20477;-71
2023/04/08 05:52:35;;;;;;;8.25;2.13;;;;;;;;;;4956811;28;20080;-71
2023/04/08 05:55:02;;;;;;;8.95;3.10;;;;;;;;;;4935040;28;20054;-71
2023/04/08 05:57:30;;;;;;;9.25;3.17;;;;;;;;;;4953933;28;20105;-71
2023/04/08 05:59:57;;;;;;;9.50;2.95;;;;;;;;;;4955317;28;20370;-71
2023/04/08 06:02:24;;;;;;;10.15;3.28;;;;;;;;;;4960722;28;20344;-72
2023/04/08 06:04:51;;;;;;;9.43;3.53;;;;;;;;;;4933083;28;20200;-71
2023/04/08 06:07:19;;;;;;;9.68;3.38;;;;;;;;;;4953366;28;20034;-71
2023/04/08 06:09:46;;;;;;;9.65;3.55;;;;;;;;;;4956027;28;20543;-72
2023/04/08 06:12:14;;;;;;;9.95;3.00;;;;;;;;;;4955957;28;20023;-71
2023/04/08 06:14:41;;;;;;;9.25;2.80;;;;;;;;;;4938962;28;20653;-69
2023/04/08 06:17:08;;;;;;;8.02;2.35;;;;;;;;;;4948524;28;20034;-71
2023/04/08 06:19:35;;;;;;;8.50;2.60;;;;;;;;;;4956556;28;20026;-71
2023/04/08 06:22:02;;;;;;;6.15;1.88;;;;;;;;;;4936938;28;20524;-71
2023/04/08 06:24:29;;;;;;;8.10;1.88;;;;;;;;;;4939311;28;20140;-71
2023/04/08 06:26:56;;;;;;;6.07;1.60;;;;;;;;;;4955280;28;20049;-71
2023/04/08 06:29:22;;;;;;;5.93;1.40;;;;;;;;;;4957432;28;20045;-71
2023/04/08 06:31:50;;;;;;;;;;;;;;;;;;4952809;28;20232;-71
2023/04/08 06:34:17;;;;;;;8.77;1.65;;;;;;;;;;4957742;28;20514;-71
2023/04/08 06:36:43;;;;;;;6.55;1.75;;;;;;;;;;4951954;28;20792;-71
2023/04/08 06:39:11;;;;;;;7.10;1.80;;;;;;;;;;4959205;28;20137;-70
2023/04/08 06:41:38;;;;;;;7.65;1.70;;;;;;;;;;4950045;28;20080;-71
2023/04/08 06:44:04;;;;;;;8.65;1.75;;;;;;;;;;4956212;28;20378;-71
2023/04/08 06:46:32;;;;;;;5.82;1.60;;;;;;;;;;4962236;28;20058;-71
2023/04/08 06:49:03;;;;;;;8.57;1.90;;;;;;;;;;4948145;28;20034;-71
2023/04/08 06:51:31;;;;;;;6.35;1.90;;;;;;;;;;4962406;28;20042;-70
2023/04/08 06:53:58;;;;;;;7.57;2.67;;;;;;;;;;4950196;28;20510;-71
2023/04/08 06:56:25;;;;;;;12.85;3.78;;;;;;;;;;4959652;28;20034;-71
2023/04/08 06:58:53;;;;;;;7.90;2.78;;;;;;;;;;4955508;28;20080;-71
2023/04/08 07:01:20;;;;;;;7.97;2.13;;;;;;;;;;4959766;28;20117;-71
2023/04/08 07:03:47;;;;;;;5.97;1.70;;;;;;;;;;4961241;28;20049;-71
2023/04/08 07:06:15;;;;;;;7.28;1.70;;;;;;;;;;4961227;28;20432;-71
2023/04/08 07:08:41;;;;;;;6.65;1.75;;;;;;;;;;4943506;28;20038;-71
2023/04/08 07:11:08;;;;;;;;;;;;;;;;;;4944754;28;20404;-72
2023/04/08 07:13:36;;;;;;;7.05;1.77;;;;;;;;;;4961102;28;19918;-70
2023/04/08 07:16:03;;;;;;;5.60;1.70;;;;;;;;;;4937741;28;20035;-72
2023/04/08 07:18:31;;;;;;;7.35;1.70;;;;;;;;;;4944956;28;20030;-70
2023/04/08 07:20:59;;;;;;;8.57;2.25;;;;;;;;;;4959214;28;20122;-70
2023/04/08 07:23:27;;;;;;;8.02;2.30;;;;;;;;;;4958418;28;20022;-69
2023/04/08 07:25:54;;;;;;;9.63;2.15;;;;;;;;;;4959914;28;20054;-72
2023/04/08 07:28:21;;;;;;;12.27;2.33;;;;;;;;;;4962196;28;20437;-72
2023/04/08 07:30:48;;;;;;;;;;;;;;;;;;4942938;28;20031;-70
2023/04/08 07:33:16;;;;;;;10.20;3.47;;;;;;;;;;4955420;28;19918;-70
2023/04/08 07:35:43;;;;;;;16.23;6.80;;;;;;;;;;4945579;28;20104;-70
2023/04/08 07:38:12;;;;;;;14.13;6.90;;;;;;;;;;4958292;28;20587;-70
2023/04/08 07:40:39;;;;;;;14.88;5.13;;;;;;;;;;4963703;28;20065;-70
2023/04/08 07:43:06;;;;;;;9.95;3.90;;;;;;;;;;4956301;28;20358;-70
2023/04/08 07:45:33;;;;;;;10.05;3.28;;;;;;;;;;4958108;28;20303;-70
2023/04/08 07:48:00;;;;;;;10.13;3.20;;;;;;;;;;4943417;28;20333;-70
2023/04/08 07:50:28;;;;;;;11.00;3.05;;;;;;;;;;4944369;28;20479;-70
2023/04/08 07:52:56;;;;;;;10.75;3.58;;;;;;;;;;4939923;28;20034;-70
2023/04/08 07:55:22;;;;;;;12.98;3.30;;;;;;;;;;4945193;28;20066;-69
2023/04/08 07:57:49;;;;;;;9.80;3.28;;;;;;;;;;4962089;28;20113;-70
2023/04/08 08:00:20;;;;;;;8.57;2.47;;;;;;;;;;4947742;28;20062;-70
2023/04/08 08:02:48;;;;;;;10.30;2.78;;;;;;;;;;4957238;28;20119;-70
2023/04/08 08:05:14;;;;;;;7.95;2.30;;;;;;;;;;4941841;28;20054;-71
2023/04/08 08:07:41;;;;;;;6.82;1.80;;;;;;;;;;4943433;28;20042;-71
2023/04/08 08:10:09;;;;;;;7.78;1.55;;;;;;;;;;4937954;28;20031;-70
2023/04/08 08:12:37;;;;;;;7.78;1.63;;;;;;;;;;4959361;28;20512;-70
2023/04/08 08:15:05;;;;;;;5.80;1.50;;;;;;;;;;4955104;28;20475;-70
2023/04/08 08:17:32;;;;;;;6.38;1.75;;;;;;;;;;4963082;28;20469;-70
2023/04/08 08:20:01;;;;;;;6.47;1.40;;;;;;;;;;4959155;28;20077;-70
2023/04/08 08:22:28;;;;;;;5.68;1.42;;;;;;;;;;4955450;28;20031;-69
2023/04/08 08:24:58;;;;;;;8.75;2.00;;;;;;;;;;4953616;28;20035;-71
2023/04/08 08:27:25;;;;;;;6.65;1.60;;;;;;;;;;4961088;28;20034;-71
2023/04/08 08:29:53;;;;;;;3.97;1.40;;;;;;;;;;4957426;28;20034;-69
2023/04/08 08:32:19;;;;;;;7.78;1.67;;;;;;;;;;4942899;28;20074;-70
2023/04/08 08:34:45;;;;;;;5.63;1.48;;;;;;;;;;4961607;28;20354;-70
2023/04/08 08:37:11;;;;;;;;;;;;;;;;;;4951090;28;20326;-71
2023/04/08 08:39:37;;;;;;;8.73;1.73;;;;;;;;;;4956031;28;20564;-70
2023/04/08 08:42:04;;;;;;;;;;;;;;;;;;4959862;28;20141;-70
2023/04/08 08:44:31;;;;;;;;;;;;;;;;;;4961864;28;20013;-70
2023/04/08 08:46:58;;;;;;;6.07;1.85;;;;;;;;;;4958590;28;19914;-71
2023/04/08 08:49:26;;;;;;;6.50;1.85;;;;;;;;;;4961969;28;20103;-71
2023/04/08 08:51:53;;;;;;;7.75;2.10;;;;;;;;;;4955747;28;20571;-70
2023/04/08 08:54:21;;;;;;;7.13;1.88;;;;;;;;;;4960253;28;20046;-71
2023/04/08 08:56:48;;;;;;;7.55;1.67;;;;;;;;;;4959238;28;20030;-70
2023/04/08 08:59:14;;;;;;;7.30;1.50;;;;;;;;;;4940284;28;20038;-71
2023/04/08 09:01:41;;;;;;;;;;;;;;;;;;4957512;28;20081;-70
2023/04/08 09:04:16;;;;;;;6.18;1.48;;;;;;;;;;4955205;28;20261;-70
2023/04/08 09:06:45;;;;;;;5.57;1.45;;;;;;;;;;4960576;28;20049;-71
2023/04/08 09:09:13;;;;;;;5.20;1.40;;;;;;;;;;4951713;28;20034;-71
2023/04/08 09:11:41;;;;;;;5.60;1.40;;;;;;;;;;4962784;28;20054;-70
2023/04/08 09:14:19;;;;;;;4.70;1.35;;;;;;;;;;4955624;28;20038;-70
2023/04/08 09:16:47;;;;;;;6.00;1.42;;;;;;;;;;4955102;28;20052;-70
2023/04/08 09:19:15;;;;;;;6.55;1.45;;;;;;;;;;4957363;28;20095;-70
2023/04/08 09:21:43;;;;;;;6.57;1.38;;;;;;;;;;4940727;28;20039;-69
2023/04/08 09:24:27;;;;;;;5.43;1.20;;;;;;;;;;4951717;28;23424;-70
2023/04/08 09:26:55;;;;;;;5.88;1.40;;;;;;;;;;4946028;28;20034;-70
2023/04/08 09:29:27;;;;;;;7.10;1.20;;;;;;;;;;4959214;28;20034;-71
2023/04/08 09:31:55;;;;;;;7.18;1.30;;;;;;;;;;4953555;28;20030;-70
2023/04/08 09:34:22;;;;;;;6.25;1.50;;;;;;;;;;4942899;28;20221;-70
2023/04/08 09:36:53;;;;;;;6.38;1.20;;;;;;;;;;4955537;28;20121;-71
2023/04/08 09:39:21;;;;;;;7.35;1.80;;;;;;;;;;4958571;28;20030;-70
2023/04/08 09:41:52;;;;;;;6.03;1.35;;;;;;;;;;4956470;28;20324;-70
2023/04/08 09:44:20;;;;;;;3.83;1.10;;;;;;;;;;4959330;28;20489;-70
2023/04/08 09:46:49;;;;;;;8.00;1.65;;;;;;;;;;4944023;28;20579;-70
2023/04/08 09:49:55;;;;;;;5.57;1.30;;;;;;;;;;4956485;28;20156;-70
2023/04/08 09:52:24;;;;;;;5.30;1.08;;;;;;;;;;4895062;29;20035;-69
2023/04/08 09:54:56;;;;;;;5.32;1.10;;;;;;;;;;4879142;29;20036;-70
2023/04/08 09:57:43;;;;;;;4.97;1.10;;;;;;;;;;4898663;29;20137;-71
2023/04/08 10:00:13;;;;;;;4.18;1.23;;;;;;;;;;4877547;29;20702;-70
2023/04/08 10:02:58;;;;;;;4.70;1.27;;;;;;;;;;4901006;29;20495;-70
2023/04/08 10:05:26;;;;;;;4.82;1.15;;;;;;;;;;4884683;29;20459;-69
2023/04/08 10:07:53;;;;;;;4.28;1.05;;;;;;;;;;4883053;29;20514;-69
2023/04/08 10:10:20;;;;;;;3.50;1.00;;;;;;;;;;4879699;29;20471;-69
2023/04/08 10:12:47;;;;;;;4.88;1.00;;;;;;;;;;4885420;29;20082;-71
2023/04/08 10:15:30;;;;;;;6.07;1.00;;;;;;;;;;4897805;29;20063;-71
2023/04/08 10:18:06;;;;;;;3.55;1.02;;;;;;;;;;4895572;29;20063;-70
2023/04/08 10:20:38;;;;;;;5.03;1.20;;;;;;;;;;4897838;29;20036;-70
2023/04/08 10:23:12;;;;;;;7.93;1.20;;;;;;;;;;4910528;28;20043;-70
2023/04/08 10:25:47;;;;;;;5.28;1.10;;;;;;;;;;4957802;28;20034;-70
2023/04/08 10:28:21;;;;;;;5.63;1.20;;;;;;;;;;4941178;28;20038;-69
2023/04/08 10:30:56;;;;;;;2.60;0.95;;;;;;;;;;4954389;28;20113;-69
2023/04/08 10:33:27;;;;;;;5.20;1.13;;;;;;;;;;4958055;28;20140;-69
2023/04/08 10:35:55;;;;;;;4.78;1.27;;;;;;;;;;4955592;28;20073;-70
2023/04/08 10:38:23;;;;;;;4.28;1.10;;;;;;;;;;4941851;28;20031;-70
2023/04/08 10:40:50;;;;;;;5.13;1.10;;;;;;;;;;4958425;28;20057;-69
2023/04/08 10:43:17;;;;;;;4.57;1.25;;;;;;;;;;4929554;28;20484;-69
2023/04/08 10:45:45;;;;;;;6.50;1.20;;;;;;;;;;4954236;28;20066;-70
2023/04/08 10:48:21;;;;;;;8.70;1.60;;;;;;;;;;4950269;28;20050;-69
2023/04/08 10:51:05;;;;;;;6.10;1.20;;;;;;;;;;4945408;28;20286;-69
2023/04/08 10:53:34;;;;;;;5.22;1.38;;;;;;;;;;4951069;28;20038;-68
2023/04/08 10:56:15;;;;;;;4.57;1.13;;;;;;;;;;4938719;28;20065;-69
2023/04/08 10:58:55;;;;;;;5.50;1.40;;;;;;;;;;4958368;28;20022;-69
2023/04/08 11:01:23;;;;;;;5.93;1.50;;;;;;;;;;4943293;28;20031;-69
2023/04/08 11:03:50;;;;;;;2.97;1.05;;;;;;;;;;4952860;28;20128;-69
2023/04/08 11:06:18;;;;;;;8.98;1.30;;;;;;;;;;4954969;28;20035;-70
2023/04/08 11:08:46;;;;;;;3.85;1.27;;;;;;;;;;4954180;28;20114;-70
2023/04/08 11:11:14;;;;;;;3.75;1.20;;;;;;;;;;4955955;28;20527;-69
2023/04/08 11:13:44;;;;;;;4.28;1.20;;;;;;;;;;4955341;28;20460;-70
2023/04/08 11:16:12;;;;;;;5.32;1.40;;;;;;;;;;4950793;28;20339;-69
2023/04/08 11:18:40;;;;;;;7.97;1.65;;;;;;;;;;4959432;28;20043;-69
2023/04/08 11:21:10;;;;;;;6.38;1.88;;;;;;;;;;4957610;28;20370;-68
2023/04/08 11:23:38;;;;;;;6.15;1.70;;;;;;;;;;4958893;28;20030;-71
2023/04/08 11:26:04;;;;;;;6.82;1.50;;;;;;;;;;4959450;28;20038;-69
2023/04/08 11:28:32;;;;;;;5.07;1.55;;;;;;;;;;4955780;28;20033;-69
2023/04/08 11:30:59;;;;;;;7.55;1.60;;;;;;;;;;4945615;28;20552;-69
2023/04/08 11:33:28;;;;;;;5.70;1.70;;;;;;;;;;4959511;28;20038;-68
2023/04/08 11:35:55;;;;;;;8.18;1.80;;;;;;;;;;4953839;28;20034;-68
2023/04/08 11:38:24;;;;;;;6.40;1.60;;;;;;;;;;4959142;28;20030;-69
2023/04/08 11:40:55;;;;;;;7.03;2.03;;;;;;;;;;4953650;28;20362;-68
2023/04/08 11:43:25;;;;;;;6.60;1.70;;;;;;;;;;4961124;28;20145;-69
2023/04/08 11:45:52;;;;;;;6.72;1.77;;;;;;;;;;4939655;28;20117;-68
2023/04/08 11:48:20;;;;;;;6.97;1.73;;;;;;;;;;4944315;28;20039;-70
2023/04/08 11:50:50;;;;;;;5.05;1.50;;;;;;;;;;4962050;28;20491;-70
2023/04/08 11:53:21;;;;;;;6.47;1.63;;;;;;;;;;4945339;28;20034;-69
2023/04/08 11:55:48;;;;;;;6.28;1.48;;;;;;;;;;4957390;28;20039;-69
2023/04/08 11:58:16;;;;;;;10.38;2.25;;;;;;;;;;4962643;28;20026;-70
2023/04/08 12:00:44;;;;;;;11.38;3.20;;;;;;;;;;4944192;28;20033;-70
2023/04/08 12:03:12;;;;;;;14.25;3.00;;;;;;;;;;4938921;28;20031;-69
2023/04/08 12:05:40;;;;;;;9.23;2.17;;;;;;;;;;4945313;28;20734;-69
2023/04/08 12:08:06;;;;;;;10.40;3.95;;;;;;;;;;4958363;28;20150;-69
2023/04/08 12:10:32;;;;;;;9.45;2.50;;;;;;;;;;4958778;28;20149;-69
2023/04/08 12:12:58;;;;;;;11.55;2.53;;;;;;;;;;4963515;28;20913;-68
2023/04/08 12:15:24;;;;;;;7.60;2.10;;;;;;;;;;4959947;28;20097;-69
2023/04/08 12:17:52;;;;;;;7.22;1.73;;;;;;;;;;4959862;28;21231;-69
2023/04/08 12:20:20;;;;;;;7.25;2.03;;;;;;;;;;4961197;28;20026;-68
2023/04/08 12:22:47;;;;;;;7.78;2.15;;;;;;;;;;4957475;28;20475;-69
2023/04/08 12:25:13;;;;;;;6.53;1.80;;;;;;;;;;4944685;28;20785;-70
2023/04/08 12:27:40;;;;;;;6.32;1.85;;;;;;;;;;4948801;28;20058;-69
2023/04/08 12:30:06;;;;;;;7.97;1.75;;;;;;;;;;4958190;28;20607;-69
2023/04/08 12:32:32;;;;;;;8.63;2.00;;;;;;;;;;4965098;28;20098;-68
2023/04/08 12:34:58;;;;;;;7.90;1.90;;;;;;;;;;4958314;28;20394;-68
2023/04/08 12:37:26;;;;;;;6.57;2.10;;;;;;;;;;4956498;28;20033;-68
2023/04/08 12:39:54;;;;;;;7.20;1.80;;;;;;;;;;4959585;28;20034;-68
2023/04/08 12:42:20;;;;;;;8.40;2.10;;;;;;;;;;4961831;28;20061;-68
2023/04/08 12:44:47;;;;;;;5.70;1.58;;;;;;;;;;4961432;28;20380;-68
2023/04/08 12:47:15;;;;;;;7.70;2.28;;;;;;;;;;4945973;28;20141;-69
2023/04/08 12:49:42;;;;;;;6.38;1.83;;;;;;;;;;4961321;28;20066;-69
2023/04/08 12:52:09;;;;;;;9.25;1.95;;;;;;;;;;4956445;28;20846;-68
2023/04/08 12:54:36;;;;;;;8.13;1.98;;;;;;;;;;4955641;28;20825;-69
2023/04/08 12:57:03;;;;;;;7.35;2.22;;;;;;;;;;4960094;28;20476;-69
2023/04/08 12:59:30;;;;;;;7.28;1.90;;;;;;;;;;4960611;28;20019;-69
2023/04/08 13:01:58;;;;;;;6.28;1.60;;;;;;;;;;4933975;28;20046;-69
2023/04/08 13:04:26;;;;;;;6.82;1.88;;;;;;;;;;4958330;28;20097;-70
2023/04/08 13:06:54;;;;;;;8.80;2.17;;;;;;;;;;4958180;28;20034;-69
2023/04/08 13:09:21;;;;;;;7.50;1.63;;;;;;;;;;4957641;28;20272;-69
2023/04/08 13:11:49;;;;;;;11.43;1.95;;;;;;;;;;4963989;28;20084;-70
2023/04/08 13:14:17;;;;;;;6.32;1.90;;;;;;;;;;4958355;28;20030;-68
2023/04/08 13:16:45;;;;;;;6.88;1.80;;;;;;;;;;4961675;28;20457;-68
2023/04/08 13:19:12;;;;;;;8.05;1.63;;;;;;;;;;4956834;28;20014;-69
2023/04/08 13:21:38;;;;;;;7.00;1.52;;;;;;;;;;4957517;28;20034;-69
2023/04/08 13:24:06;;;;;;;7.43;1.30;;;;;;;;;;4955556;28;20241;-70
2023/04/08 13:26:34;;;;;;;6.60;1.40;;;;;;;;;;4958015;28;20059;-69
2023/04/08 13:29:02;;;;;;;7.85;1.50;;;;;;;;;;4955705;28;20030;-69
2023/04/08 13:31:29;;;;;;;5.35;1.45;;;;;;;;;;4955042;28;20841;-69
2023/04/08 13:33:56;;;;;;;6.65;1.63;;;;;;;;;;4955706;28;20409;-69
2023/04/08 13:36:25;;;;;;;7.47;1.45;;;;;;;;;;4957210;28;20038;-68
2023/04/08 13:38:53;;;;;;;7.63;1.48;;;;;;;;;;4958337;28;20129;-69
2023/04/08 13:41:22;;;;;;;8.13;1.90;;;;;;;;;;4961906;28;20042;-70
2023/04/08 13:43:49;;;;;;;11.00;3.35;;;;;;;;;;4943112;28;20054;-69
2023/04/08 13:46:16;;;;;;;10.85;2.90;;;;;;;;;;4955449;28;20022;-69
2023/04/08 13:48:45;;;;;;;9.05;2.42;;;;;;;;;;4957789;28;20029;-69
2023/04/08 13:51:12;;;;;;;10.57;2.58;;;;;;;;;;4954081;28;20027;-68
2023/04/08 13:53:41;;;;;;;8.93;1.95;;;;;;;;;;4955323;28;20133;-69
2023/04/08 13:56:07;;;;;;;8.70;1.80;;;;;;;;;;4956596;28;20066;-69
2023/04/08 13:58:34;;;;;;;8.50;1.88;;;;;;;;;;4955343;28;20022;-69
2023/04/08 14:01:02;;;;;;;7.57;1.77;;;;;;;;;;4934179;28;20149;-69
2023/04/08 14:03:29;;;;;;;6.43;1.40;;;;;;;;;;4958828;28;20026;-69
2023/04/08 14:05:57;;;;;;;9.05;1.45;;;;;;;;;;4936028;28;20061;-69
2023/04/08 14:08:24;;;;;;;9.02;2.00;;;;;;;;;;4957759;28;20259;-70
2023/04/08 14:10:51;;;;;;;7.72;1.77;;;;;;;;;;4939509;28;20080;-69
2023/04/08 14:13:19;;;;;;;7.85;1.40;;;;;;;;;;4958915;28;20133;-69
2023/04/08 14:15:46;;;;;;;6.22;1.35;;;;;;;;;;4939587;28;20153;-69
2023/04/08 14:18:16;;;;;;;6.47;1.15;;;;;;;;;;4954754;28;20026;-69
2023/04/08 14:20:43;;;;;;;6.10;1.20;;;;;;;;;;4960155;28;20038;-70
2023/04/08 14:23:12;;;;;;;5.88;1.30;;;;;;;;;;4940442;28;20037;-69
2023/04/08 14:25:40;;;;;;;6.43;1.48;;;;;;;;;;4956106;28;20132;-69
2023/04/08 14:28:07;;;;;;;6.28;1.27;;;;;;;;;;4951582;28;20037;-69
2023/04/08 14:30:35;;;;;;;6.88;1.60;;;;;;;;;;4926956;28;20441;-69
2023/04/08 14:33:04;;;;;;;6.63;1.40;;;;;;;;;;4952970;28;20097;-69
2023/04/08 14:35:31;;;;;;;7.63;1.63;;;;;;;;;;4955851;28;20345;-69
2023/04/08 14:37:58;;;;;;;7.70;1.50;;;;;;;;;;4939692;28;20121;-69
2023/04/08 14:40:26;;;;;;;6.50;1.50;;;;;;;;;;4956882;28;20074;-71
2023/04/08 14:42:53;;;;;;;7.10;1.55;;;;;;;;;;4955829;28;20025;-69
2023/04/08 14:45:20;;;;;;;7.65;1.50;;;;;;;;;;4939641;28;20466;-68
2023/04/08 14:47:48;;;;;;;8.60;1.85;;;;;;;;;;4958339;28;20077;-69
2023/04/08 14:50:15;;;;;;;10.23;1.83;;;;;;;;;;4960339;28;20033;-70